createdAt,value
2022-08-22T00:00:43.926Z,0.00
2022-08-22T00:01:44.171Z,0.00
2022-08-22T00:02:47.028Z,0.00
2022-08-22T00:02:55.559Z,0.00
2022-08-22T00:02:55.897Z,1.00
2022-08-22T00:02:59.340Z,0.00
2022-08-22T00:03:02.491Z,0.00
2022-08-22T00:03:12.821Z,0.00
2022-08-22T00:03:15.165Z,0.00
2022-08-22T00:03:45.687Z,0.00
2022-08-22T00:04:45.040Z,0.00
2022-08-22T00:05:45.309Z,0.00
2022-08-22T00:06:45.575Z,0.00
2022-08-22T00:07:45.875Z,0.00
2022-08-22T00:08:46.127Z,0.00
2022-08-22T00:09:46.426Z,0.00
2022-08-22T00:10:46.704Z,0.00
2022-08-22T00:11:46.991Z,0.00
2022-08-22T00:12:48.179Z,0.00
2022-08-22T00:13:47.615Z,0.00
2022-08-22T00:14:48.854Z,0.00
2022-08-22T00:15:48.112Z,0.00
2022-08-22T00:16:48.386Z,0.00
2022-08-22T00:17:48.641Z,0.00
2022-08-22T00:18:48.890Z,0.00
2022-08-22T00:19:49.204Z,0.00
2022-08-22T00:20:49.487Z,0.00
2022-08-22T00:21:49.789Z,0.00
2022-08-22T00:22:50.061Z,0.00
2022-08-22T00:23:50.254Z,0.00
2022-08-22T00:24:50.558Z,0.00
2022-08-22T00:25:50.742Z,0.00
2022-08-22T00:26:51.087Z,0.00
2022-08-22T00:27:51.299Z,0.00
2022-08-22T00:28:51.622Z,0.00
2022-08-22T00:29:51.884Z,0.00
2022-08-22T00:30:52.128Z,0.00
2022-08-22T00:31:52.400Z,0.00
2022-08-22T00:32:52.697Z,0.00
2022-08-22T00:33:52.888Z,0.00
2022-08-22T00:34:53.161Z,1.00
2022-08-22T00:35:53.598Z,0.00
2022-08-22T00:36:53.914Z,0.00
2022-08-22T00:37:54.053Z,0.00
2022-08-22T00:38:54.286Z,0.00
2022-08-22T00:39:54.615Z,0.00
2022-08-22T00:40:54.918Z,0.00
2022-08-22T00:41:55.168Z,0.00
2022-08-22T00:42:55.497Z,0.00
2022-08-22T00:43:55.698Z,0.00
2022-08-22T00:44:55.974Z,0.00
2022-08-22T00:45:56.326Z,0.00
2022-08-22T00:46:56.622Z,0.00
2022-08-22T00:47:57.009Z,0.00
2022-08-22T00:48:57.606Z,0.00
2022-08-22T00:49:57.369Z,0.00
2022-08-22T00:50:57.679Z,0.00
2022-08-22T00:51:57.990Z,0.00
2022-08-22T00:52:58.245Z,0.00
2022-08-22T00:53:58.636Z,0.00
2022-08-22T00:54:58.850Z,0.00
2022-08-22T00:55:59.090Z,0.00
2022-08-22T00:56:59.336Z,0.00
2022-08-22T00:57:59.716Z,0.00
2022-08-22T00:58:59.826Z,0.00
2022-08-22T01:00:01.116Z,0.00
2022-08-22T01:01:00.462Z,0.00
2022-08-22T01:02:00.658Z,0.00
2022-08-22T01:03:01.017Z,0.00
2022-08-22T01:04:01.340Z,0.00
2022-08-22T01:05:01.707Z,0.00
2022-08-22T01:06:01.899Z,0.00
2022-08-22T01:07:02.178Z,0.00
2022-08-22T01:08:02.482Z,0.00
2022-08-22T01:09:02.751Z,0.00
2022-08-22T01:10:03.040Z,0.00
2022-08-22T01:11:03.404Z,0.00
2022-08-22T01:12:03.682Z,0.00
2022-08-22T01:13:03.966Z,0.00
2022-08-22T01:14:04.225Z,0.00
2022-08-22T01:15:04.541Z,0.00
2022-08-22T01:16:04.783Z,0.00
2022-08-22T01:17:05.068Z,0.00
2022-08-22T01:18:05.339Z,0.00
2022-08-22T01:19:05.616Z,0.00
2022-08-22T01:20:06.004Z,0.00
2022-08-22T01:21:06.133Z,0.00
2022-08-22T01:22:06.413Z,0.00
2022-08-22T01:23:06.632Z,0.00
2022-08-22T01:24:06.857Z,0.00
2022-08-22T01:25:07.208Z,0.00
2022-08-22T01:26:07.545Z,0.00
2022-08-22T01:27:07.886Z,0.00
2022-08-22T01:28:08.206Z,0.00
2022-08-22T01:29:10.428Z,0.00
2022-08-22T01:30:08.824Z,0.00
2022-08-22T01:31:09.046Z,0.00
2022-08-22T01:32:09.426Z,0.00
2022-08-22T01:33:09.637Z,0.00
2022-08-22T01:34:13.043Z,0.00
2022-08-22T01:35:10.233Z,0.00
2022-08-22T01:36:10.459Z,0.00
2022-08-22T01:37:10.754Z,0.00
2022-08-22T01:38:11.056Z,0.00
2022-08-22T01:39:11.348Z,0.00
2022-08-22T01:40:11.597Z,0.00
2022-08-22T01:41:12.123Z,0.00
2022-08-22T01:42:12.200Z,0.00
2022-08-22T01:43:12.561Z,0.00
2022-08-22T01:44:12.756Z,0.00
2022-08-22T01:45:13.041Z,0.00
2022-08-22T01:46:13.349Z,0.00
2022-08-22T01:47:14.600Z,0.00
2022-08-22T01:48:13.882Z,0.00
2022-08-22T01:49:14.183Z,0.00
2022-08-22T01:50:14.463Z,0.00
2022-08-22T01:51:14.803Z,0.00
2022-08-22T01:52:15.090Z,0.00
2022-08-22T01:53:15.376Z,0.00
2022-08-22T01:54:15.651Z,0.00
2022-08-22T01:55:15.981Z,0.00
2022-08-22T01:56:16.314Z,0.00
2022-08-22T01:57:16.523Z,0.00
2022-08-22T01:58:16.871Z,0.00
2022-08-22T01:59:17.621Z,0.00
2022-08-22T02:00:17.445Z,0.00
2022-08-22T02:01:17.799Z,0.00
2022-08-22T02:02:17.950Z,0.00
2022-08-22T02:03:18.274Z,0.00
2022-08-22T02:04:18.469Z,0.00
2022-08-22T02:05:18.716Z,0.00
2022-08-22T02:06:19.029Z,0.00
2022-08-22T02:07:19.302Z,0.00
2022-08-22T02:08:19.615Z,0.00
2022-08-22T02:09:19.827Z,0.00
2022-08-22T02:10:20.050Z,0.00
2022-08-22T02:11:20.309Z,0.00
2022-08-22T02:12:21.768Z,0.00
2022-08-22T02:13:20.962Z,0.00
2022-08-22T02:14:21.218Z,0.00
2022-08-22T02:15:21.527Z,0.00
2022-08-22T02:16:21.776Z,0.00
2022-08-22T02:17:22.125Z,0.00
2022-08-22T02:18:22.314Z,0.00
2022-08-22T02:19:22.600Z,0.00
2022-08-22T02:20:22.867Z,0.00
2022-08-22T02:21:23.145Z,0.00
2022-08-22T02:22:23.434Z,0.00
2022-08-22T02:23:23.757Z,0.00
2022-08-22T02:24:23.980Z,0.00
2022-08-22T02:25:24.234Z,0.00
2022-08-22T02:26:24.456Z,0.00
2022-08-22T02:27:24.799Z,0.00
2022-08-22T02:28:25.065Z,0.00
2022-08-22T02:29:25.291Z,0.00
2022-08-22T02:30:25.644Z,0.00
2022-08-22T02:31:25.851Z,0.00
2022-08-22T02:32:26.171Z,0.00
2022-08-22T02:33:26.369Z,1.00
2022-08-22T02:34:26.664Z,0.00
2022-08-22T02:35:26.983Z,0.00
2022-08-22T02:36:27.287Z,0.00
2022-08-22T02:37:27.500Z,0.00
2022-08-22T02:38:27.811Z,0.00
2022-08-22T02:39:27.985Z,0.00
2022-08-22T02:40:28.247Z,0.00
2022-08-22T02:41:28.505Z,0.00
2022-08-22T02:42:28.849Z,0.00
2022-08-22T02:43:29.088Z,0.00
2022-08-22T02:44:29.379Z,0.00
2022-08-22T02:45:29.659Z,0.00
2022-08-22T02:46:30.002Z,0.00
2022-08-22T02:47:30.210Z,0.00
2022-08-22T02:48:30.525Z,0.00
2022-08-22T02:49:30.779Z,1.00
2022-08-22T02:50:31.121Z,0.00
2022-08-22T02:51:31.423Z,0.00
2022-08-22T02:52:31.678Z,0.00
2022-08-22T02:53:32.033Z,0.00
2022-08-22T02:54:32.302Z,0.00
2022-08-22T02:55:32.625Z,0.00
2022-08-22T02:56:32.839Z,0.00
2022-08-22T02:57:36.158Z,0.00
2022-08-22T02:58:34.341Z,0.00
2022-08-22T02:59:33.676Z,0.00
2022-08-22T03:00:33.971Z,0.00
2022-08-22T03:01:34.172Z,0.00
2022-08-22T03:02:34.492Z,0.00
2022-08-22T03:03:34.713Z,0.00
2022-08-22T03:04:35.049Z,0.00
2022-08-22T03:05:35.305Z,0.00
2022-08-22T03:06:35.516Z,0.00
2022-08-22T03:07:35.799Z,0.00
2022-08-22T03:08:36.073Z,0.00
2022-08-22T03:09:36.386Z,0.00
2022-08-22T03:10:36.627Z,0.00
2022-08-22T03:11:36.965Z,0.00
2022-08-22T03:12:37.180Z,0.00
2022-08-22T03:13:37.551Z,0.00
2022-08-22T03:14:37.780Z,0.00
2022-08-22T03:15:38.922Z,0.00
2022-08-22T03:16:38.404Z,0.00
2022-08-22T03:17:38.791Z,0.00
2022-08-22T03:18:39.016Z,0.00
2022-08-22T03:19:39.322Z,0.00
2022-08-22T03:20:39.590Z,0.00
2022-08-22T03:21:39.891Z,0.00
2022-08-22T03:22:40.224Z,0.00
2022-08-22T03:23:40.440Z,0.00
2022-08-22T03:24:40.734Z,0.00
2022-08-22T03:25:40.980Z,0.00
2022-08-22T03:26:41.324Z,0.00
2022-08-22T03:27:41.706Z,0.00
2022-08-22T03:28:52.627Z,0.00
2022-08-22T03:29:43.131Z,0.00
2022-08-22T03:30:42.428Z,0.00
2022-08-22T03:31:42.762Z,0.00
2022-08-22T03:32:43.014Z,0.00
2022-08-22T03:33:43.311Z,1.00
2022-08-22T03:34:43.614Z,0.00
2022-08-22T03:35:43.891Z,0.00
2022-08-22T03:36:44.168Z,0.00
2022-08-22T03:37:44.469Z,0.00
2022-08-22T03:38:44.831Z,0.00
2022-08-22T03:39:45.165Z,0.00
2022-08-22T03:40:45.416Z,0.00
2022-08-22T03:41:45.721Z,0.00
2022-08-22T03:42:46.052Z,0.00
2022-08-22T03:43:46.339Z,0.00
2022-08-22T03:44:46.665Z,1.00
2022-08-22T03:45:46.967Z,0.00
2022-08-22T03:46:47.279Z,0.00
2022-08-22T03:47:47.591Z,0.00
2022-08-22T03:48:47.906Z,0.00
2022-08-22T03:49:48.224Z,0.00
2022-08-22T03:50:48.533Z,0.00
2022-08-22T03:51:48.848Z,0.00
2022-08-22T03:52:49.176Z,0.00
2022-08-22T03:53:49.456Z,0.00
2022-08-22T03:54:49.794Z,0.00
2022-08-22T03:55:50.117Z,0.00
2022-08-22T03:56:50.320Z,1.00
2022-08-22T03:57:51.530Z,1.00
2022-08-22T03:58:50.873Z,1.00
2022-08-22T03:59:51.110Z,1.00
2022-08-22T04:00:51.377Z,1.00
2022-08-22T04:01:51.753Z,0.00
2022-08-22T04:02:52.013Z,2.00
2022-08-22T04:03:52.303Z,2.00
2022-08-22T04:04:52.669Z,2.00
2022-08-22T04:05:53.394Z,1.00
2022-08-22T04:06:53.660Z,3.00
2022-08-22T04:07:53.548Z,2.00
2022-08-22T04:08:53.778Z,3.00
2022-08-22T04:09:54.012Z,3.00
2022-08-22T04:10:54.369Z,5.00
2022-08-22T04:11:54.563Z,6.00
2022-08-22T04:12:54.989Z,8.00
2022-08-22T04:13:55.145Z,8.00
2022-08-22T04:14:55.558Z,7.00
2022-08-22T04:15:55.807Z,3.00
2022-08-22T04:16:56.060Z,11.00
2022-08-22T04:17:56.546Z,14.00
2022-08-22T04:18:56.719Z,15.00
2022-08-22T04:19:57.048Z,20.00
2022-08-22T04:20:57.738Z,22.00
2022-08-22T04:21:57.554Z,22.00
2022-08-22T04:22:57.878Z,24.00
2022-08-22T04:23:58.211Z,31.00
2022-08-22T04:24:58.550Z,34.00
2022-08-22T04:25:58.812Z,36.00
2022-08-22T04:26:59.115Z,43.00
2022-08-22T04:27:59.692Z,44.00
2022-08-22T04:28:59.599Z,47.00
2022-08-22T04:29:59.823Z,51.00
2022-08-22T04:31:00.073Z,54.00
2022-08-22T04:32:00.422Z,57.00
2022-08-22T04:33:00.630Z,70.00
2022-08-22T04:34:01.009Z,70.00
2022-08-22T04:35:01.206Z,71.00
2022-08-22T04:36:01.541Z,80.00
2022-08-22T04:37:01.912Z,82.00
2022-08-22T04:38:02.143Z,89.00
2022-08-22T04:39:02.410Z,98.00
2022-08-22T04:40:02.786Z,107.00
2022-08-22T04:41:04.726Z,115.00
2022-08-22T04:42:16.275Z,122.00
2022-08-22T04:43:04.571Z,131.00
2022-08-22T04:44:03.870Z,136.00
2022-08-22T04:45:04.076Z,143.00
2022-08-22T04:46:04.457Z,152.00
2022-08-22T04:47:04.676Z,160.00
2022-08-22T04:48:04.958Z,164.00
2022-08-22T04:49:05.208Z,177.00
2022-08-22T04:50:05.574Z,186.00
2022-08-22T04:51:05.839Z,196.00
2022-08-22T04:52:06.116Z,205.00
2022-08-22T04:53:06.365Z,214.00
2022-08-22T04:54:06.628Z,223.00
2022-08-22T04:55:06.950Z,236.00
2022-08-22T04:56:07.791Z,248.00
2022-08-22T04:57:07.417Z,252.00
2022-08-22T04:58:07.637Z,263.00
2022-08-22T04:59:08.016Z,270.00
2022-08-22T05:00:08.318Z,280.00
2022-08-22T05:01:08.626Z,291.00
2022-08-22T05:02:08.931Z,297.00
2022-08-22T05:03:09.135Z,305.00
2022-08-22T05:04:09.380Z,314.00
2022-08-22T05:05:13.222Z,323.00
2022-08-22T05:06:09.858Z,333.00
2022-08-22T05:07:10.176Z,337.00
2022-08-22T05:08:10.374Z,348.00
2022-08-22T05:09:14.203Z,358.00
2022-08-22T05:10:12.547Z,367.00
2022-08-22T05:11:12.166Z,370.00
2022-08-22T05:12:11.436Z,382.00
2022-08-22T05:13:11.653Z,395.00
2022-08-22T05:14:12.086Z,395.00
2022-08-22T05:15:12.395Z,411.00
2022-08-22T05:16:12.702Z,411.00
2022-08-22T05:17:12.920Z,179.00
2022-08-22T05:18:13.184Z,422.00
2022-08-22T05:19:16.591Z,427.00
2022-08-22T05:20:13.822Z,437.00
2022-08-22T05:21:14.143Z,440.00
2022-08-22T05:22:14.337Z,444.00
2022-08-22T05:23:17.412Z,452.00
2022-08-22T05:24:14.940Z,457.00
2022-08-22T05:25:15.189Z,463.00
2022-08-22T05:26:15.519Z,471.00
2022-08-22T05:27:15.777Z,474.00
2022-08-22T05:28:16.062Z,480.00
2022-08-22T05:29:16.360Z,484.00
2022-08-22T05:30:16.649Z,489.00
2022-08-22T05:31:17.023Z,496.00
2022-08-22T05:32:17.851Z,507.00
2022-08-22T05:33:17.365Z,509.00
2022-08-22T05:34:18.027Z,512.00
2022-08-22T05:35:17.938Z,517.00
2022-08-22T05:36:18.141Z,525.00
2022-08-22T05:37:18.372Z,529.00
2022-08-22T05:38:18.608Z,529.00
2022-08-22T05:39:18.885Z,538.00
2022-08-22T05:40:19.247Z,543.00
2022-08-22T05:41:19.359Z,545.00
2022-08-22T05:42:19.614Z,554.00
2022-08-22T05:43:19.878Z,552.00
2022-08-22T05:44:20.158Z,551.00
2022-08-22T05:45:20.389Z,565.00
2022-08-22T05:46:20.760Z,562.00
2022-08-22T05:47:22.022Z,563.00
2022-08-22T05:48:21.262Z,576.00
2022-08-22T05:49:21.535Z,571.00
2022-08-22T05:50:21.724Z,576.00
2022-08-22T05:51:22.069Z,578.00
2022-08-22T05:52:22.674Z,584.00
2022-08-22T05:53:22.728Z,596.00
2022-08-22T05:54:33.566Z,592.00
2022-08-22T05:55:24.236Z,598.00
2022-08-22T05:56:23.483Z,605.00
2022-08-22T05:57:23.705Z,604.00
2022-08-22T05:58:24.071Z,608.00
2022-08-22T05:59:24.386Z,603.00
2022-08-22T06:00:24.701Z,614.00
2022-08-22T06:01:25.020Z,615.00
2022-08-22T06:02:25.185Z,622.00
2022-08-22T06:03:25.528Z,619.00
2022-08-22T06:04:25.780Z,625.00
2022-08-22T06:05:26.029Z,629.00
2022-08-22T06:06:26.324Z,635.00
2022-08-22T06:07:33.632Z,634.00
2022-08-22T06:08:26.875Z,636.00
2022-08-22T06:09:27.133Z,646.00
2022-08-22T06:10:28.382Z,649.00
2022-08-22T06:11:33.755Z,649.00
2022-08-22T06:12:28.905Z,655.00
2022-08-22T06:13:28.257Z,662.00
2022-08-22T06:14:28.431Z,667.00
2022-08-22T06:15:29.025Z,669.00
2022-08-22T06:16:29.032Z,667.00
2022-08-22T06:17:29.286Z,676.00
2022-08-22T06:18:29.560Z,680.00
2022-08-22T06:19:29.801Z,692.00
2022-08-22T06:20:30.092Z,692.00
2022-08-22T06:21:34.965Z,690.00
2022-08-22T06:22:31.594Z,697.00
2022-08-22T06:23:30.863Z,704.00
2022-08-22T06:24:31.091Z,711.00
2022-08-22T06:25:31.316Z,726.00
2022-08-22T06:26:31.690Z,716.00
2022-08-22T06:27:31.953Z,719.00
2022-08-22T06:28:32.205Z,724.00
2022-08-22T06:29:32.432Z,724.00
2022-08-22T06:30:32.675Z,737.00
2022-08-22T06:31:32.961Z,737.00
2022-08-22T06:32:58.908Z,753.00
2022-08-22T06:33:34.466Z,755.00
2022-08-22T06:34:33.700Z,758.00
2022-08-22T06:35:34.052Z,761.00
2022-08-22T06:36:34.330Z,768.00
2022-08-22T06:37:34.631Z,769.00
2022-08-22T06:38:34.782Z,778.00
2022-08-22T06:39:35.086Z,806.00
2022-08-22T06:40:35.351Z,788.00
2022-08-22T06:41:35.609Z,780.00
2022-08-22T06:42:35.873Z,801.00
2022-08-22T06:43:36.138Z,808.00
2022-08-22T06:44:36.371Z,815.00
2022-08-22T06:45:36.652Z,821.00
2022-08-22T06:46:36.886Z,829.00
2022-08-22T06:47:37.156Z,820.00
2022-08-22T06:48:37.501Z,825.00
2022-08-22T06:49:37.752Z,822.00
2022-08-22T06:50:38.139Z,844.00
2022-08-22T06:51:38.376Z,853.00
2022-08-22T06:52:38.602Z,847.00
2022-08-22T06:53:39.574Z,854.00
2022-08-22T06:54:40.100Z,861.00
2022-08-22T06:55:39.419Z,867.00
2022-08-22T06:56:39.625Z,884.00
2022-08-22T06:57:39.895Z,879.00
2022-08-22T06:58:40.177Z,876.00
2022-08-22T06:59:40.413Z,884.00
2022-08-22T07:00:40.699Z,890.00
2022-08-22T07:01:40.978Z,902.00
2022-08-22T07:02:41.226Z,912.00
2022-08-22T07:03:41.490Z,913.00
2022-08-22T07:04:41.743Z,924.00
2022-08-22T07:05:42.004Z,945.00
2022-08-22T07:06:42.294Z,945.00
2022-08-22T07:07:42.537Z,953.00
2022-08-22T07:08:42.775Z,964.00
2022-08-22T07:09:42.999Z,970.00
2022-08-22T07:10:43.374Z,970.00
2022-08-22T07:11:43.665Z,987.00
2022-08-22T07:12:43.910Z,997.00
2022-08-22T07:13:44.148Z,1024.00
2022-08-22T07:14:44.429Z,1033.00
2022-08-22T07:15:44.661Z,1044.00
2022-08-22T07:16:44.956Z,1075.00
2022-08-22T07:17:45.191Z,1112.00
2022-08-22T07:18:45.428Z,1126.00
2022-08-22T07:19:45.734Z,1156.00
2022-08-22T07:20:46.732Z,1175.00
2022-08-22T07:21:46.209Z,1232.00
2022-08-22T07:22:46.481Z,1305.00
2022-08-22T07:23:46.786Z,1373.00
2022-08-22T07:24:47.130Z,1532.00
2022-08-22T07:25:47.348Z,1643.00
2022-08-22T07:26:47.590Z,1778.00
2022-08-22T07:27:48.996Z,1872.00
2022-08-22T07:28:51.373Z,1931.00
2022-08-22T07:29:49.530Z,1962.00
2022-08-22T07:30:48.826Z,2037.00
2022-08-22T07:31:49.089Z,2116.00
2022-08-22T07:32:49.366Z,2210.00
2022-08-22T07:33:49.641Z,2284.00
2022-08-22T07:34:49.880Z,2236.00
2022-08-22T07:35:53.512Z,2322.00
2022-08-22T07:36:50.398Z,2246.00
2022-08-22T07:37:50.632Z,2227.00
2022-08-22T07:38:50.909Z,2345.00
2022-08-22T07:39:51.189Z,2429.00
2022-08-22T07:40:51.428Z,2460.00
2022-08-22T07:41:51.678Z,2266.00
2022-08-22T07:42:51.943Z,1980.00
2022-08-22T07:43:52.170Z,2338.00
2022-08-22T07:44:52.420Z,2372.00
2022-08-22T07:45:52.685Z,2378.00
2022-08-22T07:46:52.943Z,2454.00
2022-08-22T07:47:53.239Z,2259.00
2022-08-22T07:49:08.719Z,2343.00
2022-08-22T07:49:54.737Z,2142.00
2022-08-22T07:50:53.984Z,2331.00
2022-08-22T07:51:54.237Z,1791.00
2022-08-22T07:52:54.498Z,2191.00
2022-08-22T07:53:58.004Z,2249.00
2022-08-22T07:54:56.034Z,2252.00
2022-08-22T07:55:55.283Z,2330.00
2022-08-22T07:56:55.566Z,2410.00
2022-08-22T07:57:55.844Z,2518.00
2022-08-22T07:58:56.221Z,2420.00
2022-08-22T07:59:56.410Z,2972.00
2022-08-22T08:00:56.663Z,2632.00
2022-08-22T08:01:56.937Z,898.00
2022-08-22T08:02:57.177Z,1941.00
2022-08-22T08:03:57.429Z,2154.00
2022-08-22T08:04:57.685Z,2362.00
2022-08-22T08:05:58.013Z,2221.00
2022-08-22T08:06:58.224Z,2496.00
2022-08-22T08:07:58.627Z,2464.00
2022-08-22T08:08:58.792Z,3814.00
2022-08-22T08:09:59.041Z,1337.00
2022-08-22T08:10:59.275Z,2848.00
2022-08-22T08:11:59.529Z,2245.00
2022-08-22T08:13:02.559Z,2260.00
2022-08-22T08:14:00.109Z,1782.00
2022-08-22T08:15:00.429Z,2916.00
2022-08-22T08:16:00.637Z,3070.00
2022-08-22T08:17:00.873Z,3153.00
2022-08-22T08:18:01.299Z,3396.00
2022-08-22T08:19:01.418Z,2543.00
2022-08-22T08:20:01.680Z,2176.00
2022-08-22T08:21:01.933Z,1900.00
2022-08-22T08:22:02.241Z,3471.00
2022-08-22T08:23:02.467Z,5317.00
2022-08-22T08:24:02.693Z,2664.00
2022-08-22T08:25:03.060Z,2027.00
2022-08-22T08:26:03.290Z,3785.00
2022-08-22T08:27:03.541Z,2215.00
2022-08-22T08:28:03.814Z,5168.00
2022-08-22T08:29:04.088Z,2506.00
2022-08-22T08:30:04.372Z,1932.00
2022-08-22T08:31:04.656Z,3913.00
2022-08-22T08:32:04.905Z,4503.00
2022-08-22T08:33:25.315Z,2958.00
2022-08-22T08:34:06.426Z,4964.00
2022-08-22T08:35:05.751Z,4393.00
2022-08-22T08:36:06.051Z,1912.00
2022-08-22T08:37:06.297Z,2793.00
2022-08-22T08:38:06.531Z,2044.00
2022-08-22T08:39:06.886Z,4253.00
2022-08-22T08:40:07.191Z,5965.00
2022-08-22T08:41:07.405Z,5035.00
2022-08-22T08:42:07.650Z,4475.00
2022-08-22T08:43:09.037Z,3346.00
2022-08-22T08:44:08.211Z,4075.00
2022-08-22T08:45:08.496Z,3187.00
2022-08-22T08:46:08.734Z,3160.00
2022-08-22T08:47:09.013Z,3175.00
2022-08-22T08:48:09.281Z,3192.00
2022-08-22T08:49:09.512Z,3128.00
2022-08-22T08:50:09.745Z,2796.00
2022-08-22T08:51:10.162Z,3159.00
2022-08-22T08:52:10.439Z,3162.00
2022-08-22T08:53:10.682Z,3326.00
2022-08-22T08:54:10.987Z,4399.00
2022-08-22T08:55:19.963Z,5114.00
2022-08-22T08:56:14.618Z,5254.00
2022-08-22T08:57:12.805Z,3859.00
2022-08-22T08:58:12.073Z,3656.00
2022-08-22T08:59:12.349Z,3576.00
2022-08-22T09:00:12.694Z,3534.00
2022-08-22T09:01:12.914Z,2563.00
2022-08-22T09:02:13.778Z,9338.00
2022-08-22T09:03:15.607Z,7416.00
2022-08-22T09:04:15.079Z,9661.00
2022-08-22T09:05:14.058Z,10579.00
2022-08-22T09:06:14.341Z,15230.00
2022-08-22T09:07:14.603Z,18232.00
2022-08-22T09:08:14.861Z,14051.00
2022-08-22T09:09:15.160Z,7192.00
2022-08-22T09:10:15.414Z,15437.00
2022-08-22T09:11:15.700Z,16822.00
2022-08-22T09:12:15.941Z,14145.00
2022-08-22T09:13:16.230Z,12610.00
2022-08-22T09:14:16.504Z,11672.00
2022-08-22T09:15:16.813Z,10793.00
2022-08-22T09:16:17.101Z,10022.00
2022-08-22T09:17:17.476Z,10180.00
2022-08-22T09:18:18.280Z,10189.00
2022-08-22T09:19:18.019Z,9432.00
2022-08-22T09:20:19.438Z,10209.00
2022-08-22T09:22:19.893Z,7529.00
2022-08-22T09:23:19.144Z,7606.00
2022-08-22T09:24:19.486Z,8110.00
2022-08-22T09:25:19.770Z,8757.00
2022-08-22T09:26:20.022Z,8157.00
2022-08-22T09:27:20.285Z,7522.00
2022-08-22T09:28:20.482Z,7608.00
2022-08-22T09:29:20.743Z,8466.00
2022-08-22T09:30:28.650Z,8835.00
2022-08-22T09:31:47.502Z,5076.00
2022-08-22T09:32:22.489Z,8962.00
2022-08-22T09:33:21.823Z,6000.00
2022-08-22T09:35:23.272Z,6918.00
2022-08-22T09:36:22.534Z,7169.00
2022-08-22T09:37:22.801Z,7211.00
2022-08-22T09:38:23.067Z,7057.00
2022-08-22T09:39:23.390Z,4261.00
2022-08-22T09:41:23.991Z,7690.00
2022-08-22T09:42:24.674Z,7655.00
2022-08-22T09:43:24.500Z,7520.00
2022-08-22T09:44:24.770Z,7606.00
2022-08-22T09:45:25.111Z,7747.00
2022-08-22T09:46:31.496Z,7740.00
2022-08-22T09:47:26.611Z,7991.00
2022-08-22T09:48:26.630Z,7999.00
2022-08-22T09:49:26.151Z,7930.00
2022-08-22T09:50:29.567Z,7807.00
2022-08-22T09:51:32.269Z,7854.00
2022-08-22T09:52:33.897Z,7896.00
2022-08-22T09:53:28.658Z,7391.00
2022-08-22T09:54:31.552Z,8705.00
2022-08-22T09:55:35.276Z,10907.00
2022-08-22T09:56:29.133Z,13375.00
2022-08-22T09:57:29.153Z,15071.00
2022-08-22T09:58:28.607Z,16279.00
2022-08-22T09:59:29.034Z,21094.00
2022-08-22T10:00:30.207Z,22341.00
2022-08-22T10:01:33.025Z,19271.00
2022-08-22T10:02:29.748Z,19352.00
2022-08-22T10:03:30.478Z,19305.00
2022-08-22T10:04:30.331Z,18139.00
2022-08-22T10:05:40.748Z,18117.00
2022-08-22T10:06:31.988Z,17659.00
2022-08-22T10:07:31.229Z,18275.00
2022-08-22T10:08:31.548Z,23173.00
2022-08-22T10:09:32.122Z,24664.00
2022-08-22T10:10:32.137Z,20573.00
2022-08-22T10:11:32.656Z,20921.00
2022-08-22T10:12:36.500Z,22914.00
2022-08-22T10:13:32.974Z,22710.00
2022-08-22T10:14:33.190Z,21176.00
2022-08-22T10:15:33.415Z,21411.00
2022-08-22T10:16:33.675Z,22910.00
2022-08-22T10:17:34.117Z,23700.00
2022-08-22T10:18:35.294Z,25377.00
2022-08-22T10:19:34.551Z,26450.00
2022-08-22T10:20:34.853Z,25667.00
2022-08-22T10:21:35.124Z,24472.00
2022-08-22T10:22:35.434Z,74174.00
2022-08-22T10:23:35.709Z,71271.00
2022-08-22T10:24:43.569Z,24019.00
2022-08-22T10:25:37.185Z,22606.00
2022-08-22T10:26:38.726Z,23614.00
2022-08-22T10:27:36.788Z,23505.00
2022-08-22T10:28:37.035Z,22746.00
2022-08-22T10:29:37.536Z,22897.00
2022-08-22T10:30:37.904Z,23343.00
2022-08-22T10:31:41.164Z,21534.00
2022-08-22T10:32:39.182Z,22363.00
2022-08-22T10:33:38.463Z,22032.00
2022-08-22T10:34:38.804Z,20751.00
2022-08-22T10:35:39.024Z,18744.00
2022-08-22T10:36:39.312Z,22216.00
2022-08-22T10:37:39.706Z,22400.00
2022-08-22T10:38:46.136Z,23845.00
2022-08-22T10:39:41.227Z,23240.00
2022-08-22T10:40:40.448Z,22880.00
2022-08-22T10:41:40.890Z,25068.00
2022-08-22T10:42:41.010Z,25519.00
2022-08-22T10:43:41.347Z,72845.00
2022-08-22T10:44:41.619Z,28679.00
2022-08-22T10:45:41.889Z,24286.00
2022-08-22T10:46:42.406Z,72046.00
2022-08-22T10:47:42.528Z,24621.00
2022-08-22T10:48:42.743Z,24987.00
2022-08-22T10:49:42.971Z,72861.00
2022-08-22T10:50:43.312Z,23603.00
2022-08-22T10:51:43.572Z,25872.00
2022-08-22T10:52:43.851Z,25449.00
2022-08-22T10:53:44.092Z,73593.00
2022-08-22T10:54:44.353Z,74299.00
2022-08-22T10:55:44.611Z,74107.00
2022-08-22T10:56:44.938Z,73157.00
2022-08-22T10:57:48.334Z,73055.00
2022-08-22T10:58:46.485Z,24309.00
2022-08-22T10:59:45.723Z,25884.00
2022-08-22T11:00:49.790Z,27214.00
2022-08-22T11:01:46.253Z,23683.00
2022-08-22T11:02:46.507Z,73467.00
2022-08-22T11:03:46.759Z,73380.00
2022-08-22T11:04:46.990Z,74993.00
2022-08-22T11:05:50.164Z,76002.00
2022-08-22T11:06:47.479Z,73725.00
2022-08-22T11:07:48.654Z,75662.00
2022-08-22T11:08:48.024Z,11906.00
2022-08-22T11:09:48.324Z,6959.00
2022-08-22T11:10:48.667Z,76398.00
2022-08-22T11:11:48.935Z,75946.00
2022-08-22T11:12:49.125Z,77385.00
2022-08-22T11:13:49.708Z,77838.00
2022-08-22T11:14:49.705Z,77002.00
2022-08-22T11:15:49.971Z,75077.00
2022-08-22T11:16:55.236Z,74127.00
2022-08-22T11:17:54.155Z,56933.00
2022-08-22T11:18:58.008Z,6747.00
2022-08-22T11:19:52.155Z,4366.00
2022-08-22T11:20:51.763Z,5189.00
2022-08-22T11:21:51.796Z,74919.00
2022-08-22T11:22:52.060Z,77943.00
2022-08-22T11:23:52.340Z,77703.00
2022-08-22T11:24:56.630Z,75268.00
2022-08-22T11:25:54.185Z,7297.00
2022-08-22T11:26:53.139Z,19374.00
2022-08-22T11:27:53.777Z,13023.00
2022-08-22T11:28:53.763Z,5765.00
2022-08-22T11:29:54.060Z,4856.00
2022-08-22T11:30:54.367Z,79218.00
2022-08-22T11:31:54.700Z,17816.00
2022-08-22T11:32:57.900Z,23754.00
2022-08-22T11:33:55.194Z,21872.00
2022-08-22T11:34:55.481Z,78774.00
2022-08-22T11:35:56.045Z,77615.00
2022-08-22T11:36:55.994Z,69765.00
2022-08-22T11:37:56.476Z,5361.00
2022-08-22T11:38:56.621Z,4162.00
2022-08-22T11:39:56.969Z,18553.00
2022-08-22T11:40:57.214Z,4932.00
2022-08-22T11:41:57.658Z,19398.00
2022-08-22T11:42:57.930Z,4937.00
2022-08-22T11:43:58.090Z,79268.00
2022-08-22T11:44:58.305Z,78100.00
2022-08-22T11:45:58.596Z,77748.00
2022-08-22T11:46:59.036Z,78374.00
2022-08-22T11:47:59.154Z,78066.00
2022-08-22T11:48:59.654Z,78323.00
2022-08-22T11:49:59.713Z,78578.00
2022-08-22T11:50:59.928Z,2860.00
2022-08-22T11:52:00.235Z,57219.00
2022-08-22T11:53:01.456Z,6020.00
2022-08-22T11:54:00.805Z,7035.00
2022-08-22T11:55:01.068Z,78429.00
2022-08-22T11:56:05.590Z,80668.00
2022-08-22T11:57:01.656Z,57442.00
2022-08-22T11:58:02.143Z,3970.00
2022-08-22T11:59:02.465Z,1919.00
2022-08-22T12:00:02.527Z,2177.00
2022-08-22T12:01:02.786Z,4120.00
2022-08-22T12:02:03.979Z,3387.00
2022-08-22T12:03:03.367Z,3504.00
2022-08-22T12:04:03.659Z,3854.00
2022-08-22T12:05:03.851Z,2854.00
2022-08-22T12:06:04.074Z,3060.00
2022-08-22T12:07:04.586Z,2821.00
2022-08-22T12:08:04.696Z,2970.00
2022-08-22T12:09:05.013Z,3094.00
2022-08-22T12:10:05.391Z,2897.00
2022-08-22T12:11:05.531Z,2140.00
2022-08-22T12:12:06.478Z,79756.00
2022-08-22T12:13:06.352Z,3307.00
2022-08-22T12:14:06.820Z,3019.00
2022-08-22T12:15:08.788Z,2745.00
2022-08-22T12:16:07.124Z,3225.00
2022-08-22T12:17:07.487Z,3311.00
2022-08-22T12:18:07.696Z,3399.00
2022-08-22T12:19:07.965Z,3566.00
2022-08-22T12:20:16.714Z,3845.00
2022-08-22T12:21:09.536Z,3744.00
2022-08-22T12:22:08.791Z,3511.00
2022-08-22T12:23:09.055Z,3333.00
2022-08-22T12:24:11.350Z,3286.00
2022-08-22T12:25:10.604Z,3322.00
2022-08-22T12:26:10.711Z,3067.00
2022-08-22T12:27:10.200Z,3061.00
2022-08-22T12:28:10.476Z,3095.00
2022-08-22T12:29:15.413Z,3058.00
2022-08-22T12:30:13.885Z,3106.00
2022-08-22T12:31:11.275Z,3294.00
2022-08-22T12:32:11.520Z,3253.00